createdAt,value
2022-09-21T00:01:14.087Z,8.84
2022-09-21T00:03:42.148Z,8.86
2022-09-21T00:06:20.232Z,8.92
2022-09-21T00:08:47.979Z,8.73
2022-09-21T00:11:28.123Z,8.76
2022-09-21T00:13:59.803Z,8.82
2022-09-21T00:16:27.710Z,8.74
2022-09-21T00:18:54.624Z,8.76
2022-09-21T00:21:21.846Z,8.70
2022-09-21T00:23:49.112Z,8.59
2022-09-21T00:26:19.482Z,8.46
2022-09-21T00:28:46.856Z,8.52
2022-09-21T00:31:17.581Z,8.53
2022-09-21T00:33:44.761Z,8.54
2022-09-21T00:36:19.352Z,8.55
2022-09-21T00:38:50.516Z,8.39
2022-09-21T00:41:17.344Z,8.41
2022-09-21T00:44:06.076Z,8.49
2022-09-21T00:46:32.913Z,8.52
2022-09-21T00:48:59.614Z,8.46
2022-09-21T00:51:26.517Z,8.40
2022-09-21T00:54:00.815Z,8.34
2022-09-21T00:56:28.668Z,8.38
2022-09-21T00:58:55.837Z,8.33
2022-09-21T01:01:24.881Z,8.35
2022-09-21T01:03:53.404Z,8.32
2022-09-21T01:06:21.358Z,8.25
2022-09-21T01:08:55.006Z,8.27
2022-09-21T01:11:48.176Z,8.21
2022-09-21T01:14:37.915Z,8.16
2022-09-21T01:17:26.134Z,8.16
2022-09-21T01:20:20.099Z,8.19
2022-09-21T01:23:22.261Z,8.12
2022-09-21T01:26:06.519Z,8.15
2022-09-21T01:29:06.611Z,8.14
2022-09-21T01:31:41.446Z,8.11
2022-09-21T01:34:15.932Z,8.11
2022-09-21T01:36:47.301Z,8.10
2022-09-21T01:39:16.879Z,8.02
2022-09-21T01:41:46.026Z,7.95
2022-09-21T01:44:19.851Z,7.83
2022-09-21T01:46:48.305Z,7.82
2022-09-21T01:49:24.488Z,7.67
2022-09-21T01:52:02.072Z,7.55
2022-09-21T01:54:39.564Z,7.48
2022-09-21T01:57:23.396Z,7.42
2022-09-21T01:59:54.333Z,7.45
2022-09-21T02:02:32.037Z,7.49
2022-09-21T02:05:02.915Z,7.43
2022-09-21T02:07:32.029Z,7.41
2022-09-21T02:10:01.621Z,7.50
2022-09-21T02:12:30.398Z,7.49
2022-09-21T02:14:57.945Z,7.53
2022-09-21T02:17:55.689Z,7.64
2022-09-21T02:20:32.237Z,7.61
2022-09-21T02:23:36.911Z,7.68
2022-09-21T02:26:10.528Z,7.66
2022-09-21T02:28:51.477Z,7.61
2022-09-21T02:31:30.556Z,7.50
2022-09-21T02:34:24.508Z,7.46
2022-09-21T02:37:06.991Z,7.44
2022-09-21T02:40:28.928Z,7.38
2022-09-21T02:43:01.731Z,7.30
2022-09-21T02:45:34.208Z,7.35
2022-09-21T02:48:35.056Z,7.39
2022-09-21T02:51:16.935Z,7.43
2022-09-21T02:53:46.696Z,7.38
2022-09-21T02:56:17.265Z,7.39
2022-09-21T02:58:49.737Z,7.27
2022-09-21T03:01:19.051Z,7.22
2022-09-21T03:03:45.721Z,7.25
2022-09-21T03:06:12.537Z,7.30
2022-09-21T03:08:39.579Z,7.30
2022-09-21T03:11:06.808Z,7.30
2022-09-21T03:13:34.702Z,7.35
2022-09-21T03:16:03.710Z,7.33
2022-09-21T03:18:31.647Z,7.30
2022-09-21T03:20:58.924Z,7.28
2022-09-21T03:23:26.143Z,7.25
2022-09-21T03:25:54.566Z,7.22
2022-09-21T03:28:21.818Z,7.27
2022-09-21T03:30:50.268Z,7.23
2022-09-21T03:33:18.990Z,7.12
2022-09-21T03:35:48.188Z,7.07
2022-09-21T03:38:16.750Z,7.10
2022-09-21T03:40:48.934Z,7.15
2022-09-21T03:43:16.419Z,7.14
2022-09-21T03:45:43.682Z,7.14
2022-09-21T03:48:11.682Z,7.13
2022-09-21T03:50:39.049Z,7.11
2022-09-21T03:53:05.970Z,7.02
2022-09-21T03:55:33.262Z,7.01
2022-09-21T03:58:00.531Z,6.97
2022-09-21T04:00:27.595Z,6.90
2022-09-21T04:02:54.968Z,6.84
2022-09-21T04:05:22.251Z,6.71
2022-09-21T04:07:48.975Z,6.75
2022-09-21T04:10:19.092Z,6.80
2022-09-21T04:12:46.636Z,6.87
2022-09-21T04:15:21.721Z,6.78
2022-09-21T04:17:51.436Z,6.79
2022-09-21T04:20:19.237Z,6.78
2022-09-21T04:22:47.132Z,6.78
2022-09-21T04:25:15.241Z,6.78
2022-09-21T04:27:42.555Z,6.80
2022-09-21T04:30:12.357Z,6.73
2022-09-21T04:32:39.170Z,6.76
2022-09-21T04:35:06.257Z,6.79
2022-09-21T04:37:32.957Z,6.79
2022-09-21T04:39:59.716Z,6.87
2022-09-21T04:42:27.530Z,6.95
2022-09-21T04:44:54.192Z,6.88
2022-09-21T04:47:23.557Z,6.83
2022-09-21T04:49:51.568Z,6.82
2022-09-21T04:52:19.192Z,6.77
2022-09-21T04:54:47.124Z,6.66
2022-09-21T04:57:14.809Z,6.70
2022-09-21T04:59:41.675Z,6.70
2022-09-21T05:02:09.052Z,6.65
2022-09-21T05:04:35.827Z,6.57
2022-09-21T05:07:02.776Z,6.55
2022-09-21T05:09:48.126Z,6.54
2022-09-21T05:12:14.837Z,6.54
2022-09-21T05:14:44.085Z,6.52
2022-09-21T05:17:11.937Z,6.53
2022-09-21T05:19:39.115Z,6.54
2022-09-21T05:22:05.880Z,6.62
2022-09-21T05:24:32.561Z,6.56
2022-09-21T05:26:59.559Z,6.49
2022-09-21T05:29:26.488Z,6.44
2022-09-21T05:32:24.985Z,6.42
2022-09-21T05:35:16.443Z,6.46
2022-09-21T05:37:56.001Z,6.52
2022-09-21T05:40:23.136Z,6.48
2022-09-21T05:42:50.368Z,6.37
2022-09-21T05:45:18.814Z,6.36
2022-09-21T05:48:19.612Z,6.41
2022-09-21T05:50:59.148Z,6.43
2022-09-21T05:54:10.776Z,6.42
2022-09-21T05:56:52.705Z,6.52
2022-09-21T05:59:57.059Z,6.68
2022-09-21T06:02:50.121Z,6.65
2022-09-21T06:05:17.690Z,6.65
2022-09-21T06:07:44.388Z,6.61
2022-09-21T06:10:13.328Z,6.64
2022-09-21T06:12:40.326Z,6.57
2022-09-21T06:15:10.605Z,6.60
2022-09-21T06:17:37.301Z,6.58
2022-09-21T06:20:06.678Z,6.58
2022-09-21T06:22:34.390Z,6.67
2022-09-21T06:25:01.156Z,6.76
2022-09-21T06:31:30.319Z,6.97
2022-09-21T06:33:57.107Z,7.02
2022-09-21T06:36:23.845Z,7.02
2022-09-21T06:38:50.591Z,7.13
2022-09-21T06:41:21.084Z,7.13
2022-09-21T06:43:48.591Z,7.11
2022-09-21T06:46:15.374Z,7.18
2022-09-21T06:48:42.188Z,7.24
2022-09-21T06:51:09.909Z,7.27
2022-09-21T06:53:36.649Z,7.37
2022-09-21T06:56:05.403Z,7.43
2022-09-21T06:58:34.490Z,7.56
2022-09-21T07:01:09.205Z,7.69
2022-09-21T07:03:36.580Z,7.73
2022-09-21T07:06:03.835Z,7.75
2022-09-21T07:11:17.658Z,7.92
2022-09-21T07:13:45.545Z,8.03
2022-09-21T07:16:12.609Z,8.10
2022-09-21T07:18:44.179Z,8.16
2022-09-21T07:21:12.110Z,8.17
2022-09-21T07:23:38.920Z,8.29
2022-09-21T07:26:11.563Z,8.40
2022-09-21T07:28:39.014Z,8.45
2022-09-21T07:31:08.660Z,8.55
2022-09-21T07:33:36.339Z,8.69
2022-09-21T07:36:10.174Z,8.78
2022-09-21T07:38:42.506Z,8.90
2022-09-21T07:41:14.207Z,9.04
2022-09-21T07:43:41.439Z,9.22
2022-09-21T07:46:11.459Z,9.42
2022-09-21T07:48:38.216Z,9.61
2022-09-21T07:51:07.793Z,9.79
2022-09-21T07:53:36.156Z,10.00
2022-09-21T07:56:08.727Z,10.25
2022-09-21T07:58:55.746Z,10.50
2022-09-21T08:01:23.773Z,10.76
2022-09-21T08:03:56.432Z,11.02
2022-09-21T08:06:25.521Z,11.25
2022-09-21T08:08:57.481Z,11.50
2022-09-21T08:11:27.474Z,11.75
2022-09-21T08:14:00.759Z,11.98
2022-09-21T08:16:29.306Z,12.27
2022-09-21T08:18:56.470Z,12.47
2022-09-21T08:21:23.383Z,12.67
2022-09-21T08:23:50.232Z,12.83
2022-09-21T08:26:19.888Z,13.09
2022-09-21T08:28:51.465Z,13.34
2022-09-21T08:31:21.188Z,13.49
2022-09-21T08:33:49.699Z,13.84
2022-09-21T08:36:16.837Z,14.24
2022-09-21T08:38:43.750Z,14.55
2022-09-21T08:41:20.098Z,14.75
2022-09-21T08:44:04.905Z,14.97
2022-09-21T08:46:34.573Z,15.13
2022-09-21T08:49:10.093Z,15.35
2022-09-21T08:51:41.689Z,15.59
2022-09-21T08:54:30.492Z,15.64
2022-09-21T08:57:05.815Z,15.74
2022-09-21T08:59:40.766Z,15.96
2022-09-21T09:02:39.057Z,16.15
2022-09-21T09:05:21.135Z,16.36
2022-09-21T09:08:16.773Z,16.51
2022-09-21T09:11:09.471Z,16.68
2022-09-21T09:13:55.739Z,16.88
2022-09-21T09:16:50.443Z,17.06
2022-09-21T09:19:28.760Z,17.32
2022-09-21T09:21:56.271Z,16.94
2022-09-21T09:24:31.929Z,17.14
2022-09-21T09:27:15.289Z,17.42
2022-09-21T09:30:02.824Z,17.47
2022-09-21T09:32:51.990Z,17.61
2022-09-21T09:35:21.823Z,17.31
2022-09-21T09:37:52.302Z,16.78
2022-09-21T09:40:31.859Z,16.95
2022-09-21T09:43:09.976Z,17.32
2022-09-21T09:45:43.797Z,17.66
2022-09-21T09:48:14.854Z,17.52
2022-09-21T09:50:43.064Z,17.63
2022-09-21T09:53:17.195Z,17.46
2022-09-21T09:55:47.841Z,17.63
2022-09-21T09:58:17.840Z,17.89
2022-09-21T10:00:46.738Z,17.94
2022-09-21T10:03:19.565Z,17.41
2022-09-21T10:05:47.185Z,17.44
2022-09-21T10:08:49.254Z,17.41
2022-09-21T10:11:17.284Z,17.49
2022-09-21T10:13:47.457Z,17.50
2022-09-21T10:16:21.030Z,17.34
2022-09-21T10:18:52.187Z,17.60
2022-09-21T10:21:51.370Z,18.06
2022-09-21T10:24:46.628Z,18.45
2022-09-21T10:27:15.852Z,18.75
2022-09-21T10:29:46.025Z,19.22
2022-09-21T10:32:14.833Z,19.42
2022-09-21T10:35:01.115Z,19.77
2022-09-21T10:37:48.449Z,19.98
2022-09-21T10:40:24.430Z,19.97
2022-09-21T10:43:00.322Z,20.31
2022-09-21T10:45:37.149Z,20.44
2022-09-21T10:48:16.485Z,20.66
2022-09-21T10:50:45.654Z,20.77
2022-09-21T10:53:34.428Z,20.98
2022-09-21T10:56:18.582Z,21.03
2022-09-21T10:59:13.546Z,21.27
2022-09-21T11:01:46.625Z,21.32
2022-09-21T11:04:18.085Z,21.15
2022-09-21T11:06:48.873Z,21.44
2022-09-21T11:09:25.393Z,21.80
2022-09-21T11:12:31.249Z,21.95
2022-09-21T11:15:10.036Z,22.42
2022-09-21T11:17:50.354Z,22.81
2022-09-21T11:20:22.964Z,22.29
2022-09-21T11:23:18.537Z,20.91
2022-09-21T11:26:10.625Z,20.44
2022-09-21T11:29:00.611Z,19.53
2022-09-21T11:31:46.377Z,18.99
2022-09-21T11:34:34.669Z,19.03
2022-09-21T11:37:20.250Z,19.16
2022-09-21T11:39:53.109Z,20.75
2022-09-21T11:42:41.621Z,22.25
2022-09-21T11:45:32.549Z,23.49
2022-09-21T11:48:20.728Z,24.35
2022-09-21T11:51:06.266Z,24.36
2022-09-21T11:53:44.414Z,24.55
2022-09-21T11:56:33.269Z,24.68
2022-09-21T11:59:21.555Z,24.17
2022-09-21T12:01:57.643Z,24.47
2022-09-21T12:05:07.428Z,24.93
2022-09-21T12:07:40.211Z,25.13
2022-09-21T12:10:39.263Z,25.39
2022-09-21T12:13:51.373Z,24.88
2022-09-21T12:16:59.250Z,21.96
2022-09-21T12:19:46.019Z,22.70
2022-09-21T12:22:19.854Z,23.64
2022-09-21T12:24:51.848Z,24.19
2022-09-21T12:27:29.515Z,23.68
2022-09-21T12:30:03.096Z,22.58
2022-09-21T12:32:44.501Z,22.00
2022-09-21T12:35:16.777Z,20.71
2022-09-21T12:37:49.808Z,20.30
2022-09-21T12:40:28.146Z,22.30
2022-09-21T12:43:19.439Z,23.81
2022-09-21T12:45:52.775Z,24.89
2022-09-21T12:49:00.044Z,25.67
2022-09-21T12:51:41.769Z,26.12
2022-09-21T12:54:20.914Z,26.18
2022-09-21T12:56:59.519Z,24.33
2022-09-21T12:59:43.464Z,23.76
2022-09-21T13:02:24.614Z,24.74
2022-09-21T13:05:09.696Z,25.69
2022-09-21T13:07:49.698Z,26.23
2022-09-21T13:10:22.936Z,24.83
2022-09-21T13:12:55.286Z,22.71
2022-09-21T13:15:31.193Z,21.22
2022-09-21T13:18:06.629Z,20.28
2022-09-21T13:20:36.394Z,19.78
2022-09-21T13:23:04.475Z,19.73
2022-09-21T13:25:37.582Z,21.67
2022-09-21T13:28:13.941Z,23.26
2022-09-21T13:30:42.475Z,23.90
2022-09-21T13:33:23.008Z,24.72
2022-09-21T13:36:04.848Z,25.35
2022-09-21T13:39:03.404Z,25.75
2022-09-21T13:41:51.819Z,25.82
2022-09-21T13:44:37.927Z,23.79
2022-09-21T13:47:05.565Z,22.18
2022-09-21T13:49:39.680Z,20.95
2022-09-21T13:52:17.052Z,20.28
2022-09-21T13:55:04.233Z,19.80
2022-09-21T13:57:48.842Z,19.34
2022-09-21T14:00:19.872Z,19.75
2022-09-21T14:02:58.256Z,21.55
2022-09-21T14:05:34.175Z,22.53
2022-09-21T14:08:05.695Z,22.81
2022-09-21T14:10:37.399Z,23.37
2022-09-21T14:13:22.636Z,23.40
2022-09-21T14:15:49.583Z,23.26
2022-09-21T14:18:16.974Z,23.54
2022-09-21T14:21:19.337Z,23.72
2022-09-21T14:24:19.093Z,23.75
2022-09-21T14:26:50.273Z,23.71
2022-09-21T14:29:53.091Z,23.48
2022-09-21T14:32:23.711Z,22.00
2022-09-21T14:34:54.252Z,20.69
2022-09-21T14:37:31.256Z,20.13
2022-09-21T14:40:01.994Z,19.98
2022-09-21T14:42:29.774Z,19.71
2022-09-21T14:45:01.318Z,19.50
2022-09-21T14:47:36.236Z,19.49
2022-09-21T14:50:23.450Z,19.49
2022-09-21T14:53:09.354Z,19.58
2022-09-21T14:55:55.184Z,19.66
2022-09-21T14:58:52.069Z,19.67
2022-09-21T15:01:34.384Z,19.41
2022-09-21T15:04:54.507Z,19.05
2022-09-21T15:07:47.424Z,18.75
2022-09-21T15:10:55.528Z,18.45
2022-09-21T15:13:50.158Z,18.16
2022-09-21T15:16:25.614Z,18.07
2022-09-21T15:19:18.933Z,18.02
2022-09-21T15:21:48.160Z,17.90
2022-09-21T15:24:25.921Z,17.82
2022-09-21T15:27:01.754Z,17.80
2022-09-21T15:29:31.509Z,17.86
2022-09-21T15:31:59.668Z,18.05
2022-09-21T15:34:28.202Z,18.20
2022-09-21T15:37:07.286Z,18.26
2022-09-21T15:39:34.716Z,18.32
2022-09-21T15:42:07.520Z,18.27
2022-09-21T15:44:37.041Z,18.14
2022-09-21T15:47:08.622Z,18.00
2022-09-21T15:49:36.235Z,17.81
2022-09-21T15:52:24.788Z,17.64
2022-09-21T15:55:00.741Z,17.56
2022-09-21T15:57:43.064Z,17.39
2022-09-21T16:00:15.921Z,17.31
2022-09-21T16:02:55.994Z,17.30
2022-09-21T16:05:25.490Z,17.25
2022-09-21T16:08:06.871Z,17.28
2022-09-21T16:10:37.988Z,17.29
2022-09-21T16:13:42.587Z,17.28
2022-09-21T16:16:15.782Z,17.24
2022-09-21T16:18:57.736Z,17.17
2022-09-21T16:21:28.337Z,17.17
2022-09-21T16:23:58.511Z,17.12
2022-09-21T16:26:35.031Z,17.02
2022-09-21T16:29:26.906Z,17.00
2022-09-21T16:32:21.248Z,16.91
2022-09-21T16:34:53.022Z,16.90
2022-09-21T16:37:26.769Z,16.89
2022-09-21T16:39:58.824Z,16.83
2022-09-21T16:42:33.504Z,16.79
2022-09-21T16:45:03.154Z,16.74
2022-09-21T16:47:29.957Z,16.66
2022-09-21T16:50:03.160Z,16.65
2022-09-21T16:52:30.648Z,16.62
2022-09-21T16:54:58.733Z,16.59
2022-09-21T16:57:26.380Z,16.57
2022-09-21T16:59:53.529Z,16.50
2022-09-21T17:02:20.592Z,16.42
2022-09-21T17:04:48.089Z,16.33
2022-09-21T17:07:16.765Z,16.27
2022-09-21T17:09:47.512Z,16.20
2022-09-21T17:12:17.481Z,16.13
2022-09-21T17:14:47.115Z,16.04
2022-09-21T17:17:19.348Z,15.86
2022-09-21T17:19:50.083Z,15.63
2022-09-21T17:22:18.160Z,15.47
2022-09-21T17:24:51.817Z,15.36
2022-09-21T17:27:26.503Z,15.25
2022-09-21T17:29:55.496Z,15.07
2022-09-21T17:32:24.472Z,14.97
2022-09-21T17:34:58.739Z,14.87
2022-09-21T17:37:25.780Z,14.82
2022-09-21T17:39:53.743Z,14.72
2022-09-21T17:42:24.900Z,14.66
2022-09-21T17:45:06.785Z,14.50
2022-09-21T17:47:34.475Z,14.37
2022-09-21T17:50:14.564Z,14.32
2022-09-21T17:53:08.691Z,14.16
2022-09-21T17:55:35.852Z,13.95
2022-09-21T17:58:14.676Z,13.82
2022-09-21T18:00:50.551Z,13.74
2022-09-21T18:03:24.458Z,13.64
2022-09-21T18:05:59.474Z,13.64
2022-09-21T18:08:31.314Z,13.59
2022-09-21T18:11:21.813Z,13.47
2022-09-21T18:14:21.869Z,13.34
2022-09-21T18:16:55.094Z,13.19
2022-09-21T18:19:49.862Z,13.05
2022-09-21T18:22:38.094Z,12.98
2022-09-21T18:25:26.381Z,13.02
2022-09-21T18:27:55.843Z,12.97
2022-09-21T18:30:23.415Z,12.80
2022-09-21T18:33:12.661Z,12.79
2022-09-21T18:35:46.986Z,12.61
2022-09-21T18:38:22.750Z,12.54
2022-09-21T18:41:20.650Z,12.47
2022-09-21T18:44:27.139Z,12.31
2022-09-21T18:47:32.800Z,12.07
2022-09-21T18:50:30.904Z,12.03
2022-09-21T18:53:08.869Z,11.96
2022-09-21T18:55:37.619Z,11.83
2022-09-21T18:58:05.365Z,11.76
2022-09-21T19:00:34.639Z,11.74
2022-09-21T19:03:17.715Z,11.87
2022-09-21T19:05:49.586Z,11.97
2022-09-21T19:08:25.593Z,11.82
2022-09-21T19:11:08.211Z,11.77
2022-09-21T19:13:43.876Z,11.72
2022-09-21T19:16:24.362Z,11.64
2022-09-21T19:19:10.145Z,11.68
2022-09-21T19:21:57.614Z,11.51
2022-09-21T19:24:54.556Z,11.34
2022-09-21T19:27:45.582Z,11.35
2022-09-21T19:30:17.028Z,11.33
2022-09-21T19:32:58.060Z,11.38
2022-09-21T19:35:25.662Z,11.38
2022-09-21T19:37:55.047Z,11.27
2022-09-21T19:40:24.726Z,11.16
2022-09-21T19:43:21.051Z,11.07
2022-09-21T19:46:04.263Z,10.97
2022-09-21T19:48:42.453Z,10.99
2022-09-21T19:51:29.914Z,11.06
2022-09-21T19:54:17.339Z,11.02
2022-09-21T19:57:08.211Z,11.04
2022-09-21T19:59:44.576Z,11.02
2022-09-21T20:02:20.814Z,10.96
2022-09-21T20:05:01.327Z,10.96
2022-09-21T20:07:42.544Z,10.96
2022-09-21T20:10:38.779Z,10.60
2022-09-21T20:13:21.858Z,10.62
2022-09-21T20:16:25.535Z,10.57
2022-09-21T20:19:13.121Z,10.38
2022-09-21T20:21:43.630Z,10.29
2022-09-21T20:24:25.550Z,10.50
2022-09-21T20:26:52.350Z,10.59
2022-09-21T20:29:20.181Z,10.55
2022-09-21T20:31:49.535Z,10.51
2022-09-21T20:34:16.193Z,10.37
2022-09-21T20:36:42.913Z,10.30
2022-09-21T20:39:10.055Z,10.18
2022-09-21T20:41:37.927Z,10.16
2022-09-21T20:44:04.687Z,9.99
2022-09-21T20:46:31.781Z,9.87
2022-09-21T20:49:08.577Z,9.90
2022-09-21T20:51:36.048Z,9.89
2022-09-21T20:54:03.855Z,9.84
2022-09-21T20:56:31.535Z,9.77
2022-09-21T20:58:59.117Z,9.77
2022-09-21T21:01:27.076Z,9.63
2022-09-21T21:04:02.763Z,9.70
2022-09-21T21:06:32.547Z,9.61
2022-09-21T21:08:59.590Z,9.49
2022-09-21T21:11:27.920Z,9.49
2022-09-21T21:13:55.990Z,9.59
2022-09-21T21:16:23.219Z,9.66
2022-09-21T21:18:50.279Z,9.53
2022-09-21T21:21:17.296Z,9.43
2022-09-21T21:24:07.534Z,9.36
2022-09-21T21:26:57.776Z,9.39
2022-09-21T21:29:21.944Z,9.40
2022-09-21T21:31:50.959Z,9.40
2022-09-21T21:34:18.009Z,9.33
2022-09-21T21:36:45.411Z,9.26
2022-09-21T21:39:12.197Z,9.42
2022-09-21T21:41:38.887Z,9.41
2022-09-21T21:44:05.587Z,9.35
2022-09-21T21:46:32.481Z,9.46
2022-09-21T21:48:59.314Z,9.44
2022-09-21T21:51:26.054Z,9.42
2022-09-21T21:53:52.786Z,9.40
2022-09-21T21:56:22.579Z,9.29
2022-09-21T21:58:53.788Z,9.26
2022-09-21T22:01:23.930Z,9.28
2022-09-21T22:03:57.458Z,9.19
2022-09-21T22:06:25.618Z,9.20
2022-09-21T22:08:53.402Z,9.11
2022-09-21T22:11:21.222Z,9.09
2022-09-21T22:13:48.332Z,9.05
2022-09-21T22:16:17.777Z,9.01
2022-09-21T22:18:46.160Z,8.96
2022-09-21T22:21:23.555Z,8.84
2022-09-21T22:23:54.122Z,8.91
2022-09-21T22:26:22.135Z,8.71
2022-09-21T22:28:52.535Z,8.55
2022-09-21T22:31:21.992Z,8.51
2022-09-21T22:33:49.264Z,8.45
2022-09-21T22:36:18.633Z,8.54
2022-09-21T22:38:46.534Z,8.63
2022-09-21T22:41:18.809Z,8.78
2022-09-21T22:43:47.445Z,8.69
2022-09-21T22:46:18.230Z,8.59
2022-09-21T22:48:46.220Z,8.72
2022-09-21T22:51:14.666Z,8.69
2022-09-21T22:53:42.134Z,8.49
2022-09-21T22:56:17.792Z,8.39
2022-09-21T22:58:46.771Z,8.39
2022-09-21T23:01:14.813Z,8.43
2022-09-21T23:03:42.119Z,8.29
2022-09-21T23:06:11.498Z,8.30
2022-09-21T23:08:38.942Z,8.30
2022-09-21T23:11:14.508Z,8.45
2022-09-21T23:13:41.951Z,8.30
2022-09-21T23:16:11.064Z,8.31
2022-09-21T23:18:39.816Z,8.44
2022-09-21T23:21:22.483Z,8.41
2022-09-21T23:23:49.897Z,8.34
2022-09-21T23:26:18.909Z,8.28
2022-09-21T23:28:51.926Z,8.31
2022-09-21T23:31:18.995Z,8.26
2022-09-21T23:33:48.395Z,8.18
2022-09-21T23:36:17.870Z,8.19
2022-09-21T23:38:46.220Z,8.19
2022-09-21T23:41:24.762Z,8.20
2022-09-21T23:43:52.269Z,7.98
2022-09-21T23:46:24.619Z,7.88
2022-09-21T23:48:51.657Z,7.86
2022-09-21T23:51:18.579Z,7.83
2022-09-21T23:53:46.075Z,7.88
2022-09-21T23:56:20.896Z,7.98
2022-09-21T23:58:48.101Z,7.95
